Time;durP1;ratioP1;P1;durP2;ratioP2;P2;SDS_P1;SDS_P2;PMS_P1;PMS_P2;Temp;Humidity;BMP_temperature;BMP_pressure;BME280_temperature;BME280_humidity;BME280_pressure;Samples;Min_cycle;Max_cycle;Signal;HPM_P1;HPM_P2
2023/12/03 00:00:09;;;;;;;26.67;8.57;;;14.00;99.90;;;;;;4942470;28;20077;-88
2023/12/03 00:02:37;;;;;;;29.63;8.43;;;14.00;99.90;;;;;;4958318;28;20042;-88
2023/12/03 00:05:05;;;;;;;29.10;8.98;;;14.00;99.90;;;;;;4958526;28;20469;-89
2023/12/03 00:07:32;;;;;;;24.88;7.97;;;14.00;99.90;;;;;;4958223;28;20031;-89
2023/12/03 00:10:00;;;;;;;28.48;7.85;;;14.00;99.90;;;;;;4959755;28;20117;-88
2023/12/03 00:12:28;;;;;;;20.98;7.20;;;14.00;99.90;;;;;;4962388;28;20031;-88
2023/12/03 00:14:55;;;;;;;16.23;6.88;;;14.00;99.90;;;;;;4962282;28;20027;-88
2023/12/03 00:17:21;;;;;;;33.58;7.57;;;13.90;99.90;;;;;;4946002;28;20031;-89
2023/12/03 00:19:48;;;;;;;19.40;6.80;;;13.90;99.90;;;;;;4946110;28;20027;-88
2023/12/03 00:22:15;;;;;;;24.65;7.75;;;13.90;99.90;;;;;;4962149;28;20054;-88
2023/12/03 00:24:42;;;;;;;17.50;7.55;;;13.80;99.90;;;;;;4961768;28;20082;-88
2023/12/03 00:27:16;;;;;;;20.77;6.95;;;13.80;99.90;;;;;;4961965;28;20039;-88
2023/12/03 00:29:43;;;;;;;23.95;6.93;;;13.80;99.90;;;;;;4961818;28;20135;-89
2023/12/03 00:32:10;;;;;;;24.42;6.75;;;13.70;99.90;;;;;;4946025;28;20046;-89
2023/12/03 00:34:37;;;;;;;26.02;6.82;;;13.70;99.90;;;;;;4972747;28;20433;-89
2023/12/03 00:37:03;;;;;;;22.73;6.13;;;13.70;99.90;;;;;;4984430;28;20487;-89
2023/12/03 00:39:30;;;;;;;23.25;6.63;;;13.70;99.90;;;;;;4984912;28;20057;-88
2023/12/03 00:41:57;;;;;;;25.23;7.40;;;13.70;99.90;;;;;;4988480;28;20033;-88
2023/12/03 00:44:23;;;;;;;27.55;8.38;;;13.80;99.90;;;;;;4976134;28;20022;-89
2023/12/03 00:46:50;;;;;;;26.40;7.95;;;13.70;99.90;;;;;;4990623;28;20038;-88
2023/12/03 00:49:17;;;;;;;23.63;7.57;;;13.70;99.90;;;;;;4985620;28;20022;-88
2023/12/03 00:51:44;;;;;;;19.30;6.85;;;13.80;99.90;;;;;;4985464;28;20041;-89
2023/12/03 00:54:12;;;;;;;32.33;6.40;;;13.80;99.90;;;;;;4992002;28;20026;-88
2023/12/03 00:56:39;;;;;;;20.95;6.85;;;13.70;99.90;;;;;;4992927;28;20058;-89
2023/12/03 00:59:05;;;;;;;22.02;6.85;;;13.70;99.90;;;;;;4992584;28;20022;-88
2023/12/03 01:01:32;;;;;;;25.83;6.50;;;13.70;99.90;;;;;;4987431;28;20497;-88
2023/12/03 01:03:59;;;;;;;19.88;6.28;;;13.70;99.90;;;;;;4986055;28;20038;-88
2023/12/03 01:06:25;;;;;;;23.92;5.63;;;13.70;99.90;;;;;;4985969;28;20028;-89
2023/12/03 01:08:52;;;;;;;18.27;6.10;;;13.80;99.90;;;;;;4980470;28;20034;-89
2023/12/03 01:11:19;;;;;;;21.38;5.63;;;13.70;99.90;;;;;;4983816;28;20064;-88
2023/12/03 01:13:45;;;;;;;28.35;6.10;;;13.70;99.90;;;;;;4983864;28;20022;-88
2023/12/03 01:16:16;;;;;;;19.58;5.70;;;13.60;99.90;;;;;;4983583;28;20049;-88
2023/12/03 01:18:44;;;;;;;25.40;5.35;;;13.60;99.90;;;;;;4999657;28;20437;-88
2023/12/03 01:21:10;;;;;;;21.77;5.47;;;13.60;99.90;;;;;;4980271;28;20468;-88
2023/12/03 01:23:37;;;;;;;24.42;5.60;;;13.60;99.90;;;;;;4964141;28;20031;-88
2023/12/03 01:26:05;;;;;;;20.10;5.80;;;13.50;99.90;;;;;;4978870;28;20081;-89
2023/12/03 01:28:31;;;;;;;20.67;5.28;;;13.50;99.90;;;;;;4983430;28;20033;-88
2023/12/03 01:30:58;;;;;;;21.85;5.75;;;13.60;99.90;;;;;;4983275;28;20053;-88
2023/12/03 01:33:24;;;;;;;18.77;5.07;;;13.60;99.90;;;;;;4999843;28;20026;-88
2023/12/03 01:35:51;;;;;;;24.00;4.75;;;13.60;99.90;;;;;;4983085;28;20053;-88
2023/12/03 01:38:18;;;;;;;19.02;5.07;;;13.70;99.90;;;;;;4999447;28;20037;-89
2023/12/03 01:40:53;;;;;;;28.15;6.43;;;13.70;99.90;;;;;;4983339;28;20021;-89
2023/12/03 01:43:19;;;;;;;;;;;13.70;99.90;;;;;;4983680;28;20026;-89
2023/12/03 01:45:47;;;;;;;25.40;6.15;;;13.80;99.90;;;;;;4983219;28;20359;-88
2023/12/03 01:48:14;;;;;;;16.92;6.13;;;13.80;99.90;;;;;;4999159;28;20038;-87
2023/12/03 01:50:42;;;;;;;18.67;5.43;;;13.80;99.90;;;;;;4982998;28;20061;-88
2023/12/03 01:53:10;;;;;;;23.27;5.63;;;13.80;99.90;;;;;;5015501;28;20112;-88
2023/12/03 01:55:36;;;;;;;23.92;5.80;;;13.70;99.90;;;;;;5015686;28;20029;-88
2023/12/03 01:58:04;;;;;;;19.10;6.65;;;13.70;99.90;;;;;;4999015;28;20049;-88
2023/12/03 02:00:32;;;;;;;20.35;6.28;;;13.60;99.90;;;;;;5015383;28;20022;-88
2023/12/03 02:02:59;;;;;;;15.32;5.63;;;13.50;99.90;;;;;;5013679;28;20029;-87
2023/12/03 02:05:29;;;;;;;24.77;6.63;;;13.50;99.90;;;;;;5002675;28;20038;-88
2023/12/03 02:07:56;;;;;;;27.67;6.85;;;13.50;99.90;;;;;;5015603;28;20054;-87
2023/12/03 02:10:23;;;;;;;17.45;6.07;;;13.40;99.90;;;;;;4986277;28;20042;-89
2023/12/03 02:12:53;;;;;;;22.50;7.07;;;13.40;99.90;;;;;;4979358;28;20030;-88
2023/12/03 02:15:20;;;;;;;18.23;6.18;;;13.40;99.90;;;;;;4979368;28;20038;-88
2023/12/03 02:17:47;;;;;;;17.50;5.90;;;13.40;99.90;;;;;;4963145;28;20039;-88
2023/12/03 02:20:14;;;;;;;21.27;5.45;;;13.30;99.90;;;;;;4963319;28;20499;-89
2023/12/03 02:23:01;;;;;;;18.70;5.63;;;13.30;99.90;;;;;;4976418;28;20490;-88
2023/12/03 02:25:28;;;;;;;14.25;5.45;;;13.30;99.90;;;;;;4982437;28;20117;-88
2023/12/03 02:27:54;;;;;;;20.40;5.47;;;13.30;99.90;;;;;;4982330;28;20483;-88
2023/12/03 02:30:21;;;;;;;18.08;5.28;;;13.30;99.90;;;;;;4998356;28;20078;-89
2023/12/03 02:32:48;;;;;;;13.82;5.05;;;13.30;99.90;;;;;;4981723;28;20030;-89
2023/12/03 02:35:15;;;;;;;23.55;4.93;;;13.30;99.90;;;;;;4998201;28;20124;-88
2023/12/03 02:37:41;;;;;;;19.02;5.35;;;13.20;99.90;;;;;;4982230;28;20038;-88
2023/12/03 02:40:09;;;;;;;21.80;5.35;;;13.20;99.90;;;;;;4998302;28;20078;-88
2023/12/03 02:42:36;;;;;;;13.02;4.22;;;13.10;99.90;;;;;;4982058;28;20029;-89
2023/12/03 02:45:03;;;;;;;15.68;5.43;;;13.10;99.90;;;;;;4998154;28;20053;-89
2023/12/03 02:47:29;;;;;;;21.70;6.18;;;13.00;99.90;;;;;;4981960;28;20026;-89
2023/12/03 02:49:56;;;;;;;16.83;5.05;;;13.00;99.90;;;;;;4997980;28;20096;-89
2023/12/03 02:52:23;;;;;;;21.15;5.32;;;12.90;99.90;;;;;;4981813;28;20704;-89
2023/12/03 02:54:49;;;;;;;18.02;5.50;;;12.90;99.90;;;;;;4998195;28;20053;-88
2023/12/03 02:57:16;;;;;;;24.67;5.30;;;12.80;99.90;;;;;;4981782;28;20144;-88
2023/12/03 02:59:43;;;;;;;17.17;5.45;;;12.70;99.90;;;;;;4981623;28;20527;-89
2023/12/03 03:02:09;;;;;;;26.05;5.55;;;12.70;99.90;;;;;;4981610;28;20033;-88
2023/12/03 03:04:36;;;;;;;17.67;5.75;;;12.70;99.90;;;;;;4997774;28;20392;-89
2023/12/03 03:07:03;;;;;;;16.98;5.30;;;12.60;99.90;;;;;;4981780;28;20022;-89
2023/12/03 03:09:29;;;;;;;25.30;7.72;;;12.60;99.90;;;;;;4997659;28;20116;-88
2023/12/03 03:11:57;;;;;;;21.45;5.55;;;12.60;99.90;;;;;;4981493;28;20096;-88
2023/12/03 03:14:24;;;;;;;29.58;6.10;;;12.50;99.90;;;;;;4997661;28;20034;-87
2023/12/03 03:16:51;;;;;;;16.48;5.13;;;12.50;99.90;;;;;;4984159;28;20025;-88
2023/12/03 03:19:18;;;;;;;16.40;5.68;;;12.50;99.90;;;;;;5000920;28;20025;-89
2023/12/03 03:21:44;;;;;;;21.10;6.63;;;12.50;99.90;;;;;;4995491;28;20029;-88
2023/12/03 03:24:12;;;;;;;19.23;5.45;;;12.50;99.90;;;;;;4994170;28;20129;-89
2023/12/03 03:26:39;;;;;;;23.30;5.80;;;12.50;99.90;;;;;;4977852;28;20045;-88
2023/12/03 03:29:06;;;;;;;19.52;4.97;;;12.50;99.90;;;;;;4978082;28;20026;-89
2023/12/03 03:31:33;;;;;;;21.67;4.35;;;12.50;99.90;;;;;;4977777;28;20035;-88
2023/12/03 03:33:59;;;;;;;22.58;5.03;;;12.60;99.90;;;;;;4978195;28;20125;-89
2023/12/03 03:36:26;;;;;;;16.35;5.22;;;12.60;99.90;;;;;;4974839;28;20050;-89
2023/12/03 03:38:52;;;;;;;18.52;5.00;;;12.60;99.90;;;;;;4984262;28;20117;-88
2023/12/03 03:41:19;;;;;;;19.83;5.07;;;12.60;99.90;;;;;;4974735;28;20022;-89
2023/12/03 03:43:46;;;;;;;16.02;4.63;;;12.50;99.90;;;;;;4974472;28;20030;-89
2023/12/03 03:46:12;;;;;;;18.42;3.90;;;12.40;99.90;;;;;;4958070;28;20022;-88
2023/12/03 03:48:39;;;;;;;13.52;4.35;;;12.40;99.90;;;;;;4990497;28;20041;-89
2023/12/03 03:51:06;;;;;;;14.15;4.80;;;12.30;99.90;;;;;;4977510;28;20048;-88
2023/12/03 03:53:33;;;;;;;22.40;5.50;;;12.20;99.90;;;;;;4977894;28;20425;-89
2023/12/03 03:56:05;;;;;;;13.55;5.05;;;12.20;99.90;;;;;;4974011;28;20523;-89
2023/12/03 03:58:31;;;;;;;15.10;5.00;;;12.20;99.90;;;;;;4957969;28;20039;-88
2023/12/03 04:00:58;;;;;;;13.50;4.68;;;12.10;99.90;;;;;;4957740;28;20046;-88
2023/12/03 04:03:24;;;;;;;14.95;4.55;;;12.00;99.90;;;;;;4973750;28;20027;-88
2023/12/03 04:05:51;;;;;;;13.30;4.65;;;12.00;99.90;;;;;;4957618;28;20031;-89
2023/12/03 04:08:18;;;;;;;14.93;4.40;;;12.00;99.90;;;;;;4957415;28;20039;-88
2023/12/03 04:10:44;;;;;;;14.95;4.95;;;12.10;99.90;;;;;;4957411;28;20113;-89
2023/12/03 04:13:11;;;;;;;16.73;4.40;;;12.10;99.90;;;;;;4957593;28;20555;-88
2023/12/03 04:15:37;;;;;;;14.80;5.07;;;12.10;99.90;;;;;;4957658;28;20031;-88
2023/12/03 04:18:04;;;;;;;18.75;4.30;;;12.00;99.90;;;;;;4957132;28;20031;-88
2023/12/03 04:20:33;;;;;;;12.63;4.80;;;12.00;99.90;;;;;;4957437;28;20101;-88
2023/12/03 04:22:59;;;;;;;13.07;4.07;;;12.00;99.90;;;;;;4957518;28;20034;-88
2023/12/03 04:25:26;;;;;;;12.98;4.32;;;12.00;99.90;;;;;;4957331;28;20392;-89
2023/12/03 04:27:52;;;;;;;12.95;4.22;;;12.00;99.90;;;;;;4957438;28;20530;-88
2023/12/03 04:30:19;;;;;;;15.35;4.28;;;11.90;99.90;;;;;;4957160;28;20179;-87
2023/12/03 04:32:46;;;;;;;11.80;3.97;;;11.90;99.90;;;;;;4958952;28;20129;-88
2023/12/03 04:35:14;;;;;;;11.40;4.70;;;11.90;99.90;;;;;;4973752;28;20054;-88
2023/12/03 04:37:41;;;;;;;12.05;4.55;;;11.80;99.90;;;;;;4973906;28;20034;-89
2023/12/03 04:40:09;;;;;;;13.10;4.28;;;11.80;99.90;;;;;;4988332;28;20027;-88
2023/12/03 04:42:36;;;;;;;16.00;4.47;;;11.80;99.90;;;;;;4973940;28;20027;-88
2023/12/03 04:45:02;;;;;;;14.50;4.30;;;11.80;99.90;;;;;;4957872;28;20027;-88
2023/12/03 04:47:32;;;;;;;12.27;4.18;;;11.80;99.90;;;;;;4990044;28;20538;-89
2023/12/03 04:49:59;;;;;;;12.13;4.70;;;11.80;99.90;;;;;;4989875;28;20085;-88
2023/12/03 04:52:25;;;;;;;16.08;4.28;;;11.80;99.90;;;;;;4990126;28;20030;-88
2023/12/03 04:54:53;;;;;;;14.40;4.63;;;11.80;99.90;;;;;;4957754;28;20039;-89
2023/12/03 04:57:20;;;;;;;11.68;4.90;;;11.80;99.90;;;;;;4993243;28;20031;-89
2023/12/03 04:59:46;;;;;;;12.82;5.03;;;11.80;99.90;;;;;;4996466;28;20061;-89
2023/12/03 05:02:13;;;;;;;16.27;4.65;;;11.90;99.90;;;;;;4980753;28;20034;-89
2023/12/03 05:04:40;;;;;;;13.95;4.57;;;11.90;99.90;;;;;;4980617;28;20034;-89
2023/12/03 05:07:06;;;;;;;15.00;4.60;;;11.90;99.90;;;;;;4997193;28;20026;-89
2023/12/03 05:09:32;;;;;;;14.63;4.78;;;12.00;99.90;;;;;;4977147;28;20122;-88
2023/12/03 05:11:58;;;;;;;14.13;4.07;;;12.00;99.90;;;;;;4961065;28;20039;-88
2023/12/03 05:14:24;;;;;;;17.63;4.65;;;12.10;99.90;;;;;;4961332;28;20046;-87
2023/12/03 05:16:51;;;;;;;8.40;3.92;;;12.20;99.90;;;;;;4961103;28;20134;-88
2023/12/03 05:19:17;;;;;;;13.65;4.43;;;12.20;99.90;;;;;;4975770;28;20502;-88
2023/12/03 05:21:43;;;;;;;12.55;3.97;;;12.20;99.90;;;;;;4978082;28;20050;-89
2023/12/03 05:24:10;;;;;;;18.13;4.65;;;12.30;99.90;;;;;;5001445;28;20014;-90
2023/12/03 05:26:36;;;;;;;16.27;4.57;;;12.30;99.90;;;;;;4999448;28;20041;-90
2023/12/03 05:29:02;;;;;;;9.70;3.90;;;12.40;99.90;;;;;;4982008;28;20492;-89
2023/12/03 05:31:29;;;;;;;16.92;4.70;;;12.40;99.90;;;;;;4980982;28;20069;-89
2023/12/03 05:33:55;;;;;;;21.50;5.55;;;12.40;99.90;;;;;;4980351;28;20023;-89
2023/12/03 05:36:24;;;;;;;9.65;4.05;;;12.40;99.90;;;;;;4979959;28;20053;-89
2023/12/03 05:38:54;;;;;;;12.77;4.60;;;12.50;99.90;;;;;;4979888;28;20427;-89
2023/12/03 05:41:20;;;;;;;14.98;3.97;;;12.50;99.90;;;;;;4979843;28;20381;-90
2023/12/03 05:43:47;;;;;;;9.88;4.47;;;12.50;99.90;;;;;;4980067;28;20037;-90
2023/12/03 05:46:14;;;;;;;10.05;4.47;;;12.40;99.90;;;;;;4979922;28;20050;-89
2023/12/03 05:48:40;;;;;;;17.35;5.03;;;12.50;99.90;;;;;;4966841;28;20029;-89
2023/12/03 05:51:10;;;;;;;16.73;4.32;;;12.50;99.90;;;;;;4999306;28;20038;-88
2023/12/03 05:53:36;;;;;;;11.48;4.95;;;12.40;99.90;;;;;;4999358;28;20026;-88
2023/12/03 05:56:03;;;;;;;16.05;4.88;;;12.40;99.90;;;;;;4999162;28;20026;-89
2023/12/03 05:58:29;;;;;;;13.50;5.10;;;12.40;99.90;;;;;;4997250;28;20033;-88
2023/12/03 06:00:55;;;;;;;14.60;5.25;;;12.40;99.90;;;;;;4979641;28;20034;-89
2023/12/03 06:03:21;;;;;;;12.63;5.05;;;12.40;99.90;;;;;;4979638;28;20033;-89
2023/12/03 06:05:47;;;;;;;11.35;4.80;;;12.40;99.90;;;;;;4979417;28;20441;-89
2023/12/03 06:08:15;;;;;;;12.80;5.38;;;12.30;99.90;;;;;;4966911;28;20035;-88
2023/12/03 06:10:41;;;;;;;12.70;5.30;;;12.30;99.90;;;;;;4951003;28;20047;-89
2023/12/03 06:13:07;;;;;;;14.25;5.38;;;12.20;99.90;;;;;;4954780;28;20027;-89
2023/12/03 06:15:33;;;;;;;11.82;5.65;;;12.20;99.90;;;;;;4943842;28;20118;-88
2023/12/03 06:18:00;;;;;;;14.60;5.30;;;12.20;99.90;;;;;;4950310;28;20023;-89
2023/12/03 06:20:26;;;;;;;14.70;5.10;;;12.20;99.90;;;;;;4950170;28;20041;-89
2023/12/03 06:22:52;;;;;;;12.88;5.18;;;12.20;99.90;;;;;;4950194;28;20043;-89
2023/12/03 06:25:18;;;;;;;7.55;4.80;;;12.30;99.90;;;;;;4949799;28;20037;-89
2023/12/03 06:27:47;;;;;;;15.05;5.03;;;12.30;99.90;;;;;;4944226;28;20110;-90
2023/12/03 06:30:14;;;;;;;20.55;4.88;;;12.40;99.90;;;;;;4943716;28;20031;-90
2023/12/03 06:32:40;;;;;;;10.82;5.40;;;12.50;99.90;;;;;;4943399;28;20481;-89
2023/12/03 06:35:07;;;;;;;10.48;5.13;;;12.60;99.90;;;;;;4948294;28;20126;-91
2023/12/03 06:37:33;;;;;;;10.95;4.85;;;12.60;99.90;;;;;;4979192;28;20034;-92
2023/12/03 06:39:59;;;;;;;13.60;5.03;;;12.70;99.90;;;;;;4984160;28;20034;-91
2023/12/03 06:42:25;;;;;;;24.05;5.57;;;12.80;99.90;;;;;;4967729;28;20038;-90
2023/12/03 06:44:52;;;;;;;18.15;5.82;;;12.80;99.90;;;;;;4982408;28;20168;-90
2023/12/03 06:47:18;;;;;;;13.88;5.68;;;12.90;99.90;;;;;;4982089;28;20030;-91
2023/12/03 06:49:44;;;;;;;13.75;5.57;;;12.90;99.90;;;;;;4982240;28;20396;-91
2023/12/03 06:52:10;;;;;;;13.15;5.60;;;13.00;99.90;;;;;;4982203;28;20495;-92
2023/12/03 06:54:37;;;;;;;13.93;6.93;;;13.00;99.90;;;;;;4982458;28;20058;-91
2023/12/03 06:57:03;;;;;;;14.82;8.30;;;13.10;99.90;;;;;;4982014;28;20036;-91
2023/12/03 06:59:29;;;;;;;13.50;6.82;;;13.20;99.90;;;;;;4981528;28;20022;-88
2023/12/03 07:01:56;;;;;;;13.38;7.50;;;13.30;99.90;;;;;;4981458;28;20038;-84
2023/12/03 07:04:22;;;;;;;13.65;9.23;;;13.40;99.90;;;;;;5013904;28;20030;-88
2023/12/03 07:06:48;;;;;;;18.40;12.48;;;13.50;99.90;;;;;;4997489;28;20076;-86
2023/12/03 07:09:14;;;;;;;15.63;10.60;;;13.80;99.90;;;;;;4984921;28;20026;-85
2023/12/03 07:11:41;;;;;;;22.13;15.27;;;14.10;99.90;;;;;;4968382;28;20038;-87
2023/12/03 07:14:07;;;;;;;20.98;16.13;;;14.30;99.90;;;;;;4997489;28;20025;-88
2023/12/03 07:16:33;;;;;;;16.83;14.20;;;14.50;99.90;;;;;;4997518;28;20030;-88
2023/12/03 07:18:59;;;;;;;18.52;16.00;;;14.70;99.90;;;;;;4980896;28;20026;-87
2023/12/03 07:21:25;;;;;;;20.02;17.30;;;15.00;99.90;;;;;;4977876;28;20472;-86
2023/12/03 07:23:52;;;;;;;18.50;17.02;;;15.00;99.90;;;;;;4977258;28;20122;-84
2023/12/03 07:26:18;;;;;;;19.25;17.55;;;15.10;99.90;;;;;;4996222;28;20033;-85
2023/12/03 07:28:44;;;;;;;20.10;17.48;;;15.10;99.90;;;;;;4980636;28;20026;-85
2023/12/03 07:31:11;;;;;;;22.67;19.08;;;15.20;99.90;;;;;;4980870;28;20038;-89
2023/12/03 07:33:37;;;;;;;20.48;18.55;;;15.20;99.90;;;;;;4981471;28;20035;-83
2023/12/03 07:36:03;;;;;;;20.85;18.58;;;15.10;99.90;;;;;;4983877;28;20053;-86
2023/12/03 07:38:29;;;;;;;20.60;18.70;;;15.00;99.90;;;;;;4960760;28;20034;-85
2023/12/03 07:40:56;;;;;;;21.13;19.15;;;15.10;99.90;;;;;;4993431;28;20041;-86
2023/12/03 07:43:22;;;;;;;20.88;19.08;;;15.00;99.90;;;;;;4961497;28;20030;-88
2023/12/03 07:45:49;;;;;;;22.38;19.38;;;14.90;99.90;;;;;;4961120;28;20041;-87
2023/12/03 07:48:15;;;;;;;20.70;18.88;;;14.80;99.90;;;;;;4961294;28;20472;-89
2023/12/03 07:50:42;;;;;;;20.83;18.95;;;14.80;99.90;;;;;;4961339;28;20042;-85
2023/12/03 07:53:08;;;;;;;20.27;18.50;;;14.70;99.90;;;;;;4990500;28;20113;-86
2023/12/03 07:55:34;;;;;;;24.48;18.48;;;14.70;99.90;;;;;;4960956;28;20022;-84
2023/12/03 07:58:01;;;;;;;19.77;18.00;;;14.70;99.90;;;;;;4961010;28;20484;-86
2023/12/03 08:00:27;;;;;;;20.10;18.40;;;14.80;99.90;;;;;;4976962;28;20069;-85
2023/12/03 08:02:54;;;;;;;20.48;18.65;;;14.80;99.90;;;;;;4961226;28;20031;-87
2023/12/03 08:05:21;;;;;;;19.45;17.92;;;14.90;99.90;;;;;;4957348;28;20039;-89
2023/12/03 08:07:47;;;;;;;21.67;18.80;;;14.90;99.90;;;;;;4957868;28;20500;-90
2023/12/03 08:10:13;;;;;;;20.98;18.88;;;14.90;99.90;;;;;;4951706;28;20035;-86
2023/12/03 08:12:41;;;;;;;21.00;19.17;;;14.90;99.90;;;;;;4940224;28;20114;-88
2023/12/03 08:15:09;;;;;;;21.80;20.00;;;14.90;99.90;;;;;;4941348;28;20130;-89
2023/12/03 08:17:37;;;;;;;21.90;19.88;;;15.00;99.90;;;;;;4937939;29;20031;-88
2023/12/03 08:20:05;;;;;;;21.25;19.45;;;15.10;99.90;;;;;;4954186;29;20118;-91
2023/12/03 08:22:34;;;;;;;24.42;20.38;;;15.00;99.90;;;;;;4937956;29;20027;-88
2023/12/03 08:25:02;;;;;;;22.40;20.35;;;15.00;99.90;;;;;;4953771;29;20035;-88
2023/12/03 08:27:29;;;;;;;20.92;19.33;;;15.00;99.90;;;;;;4940728;28;20086;-88
2023/12/03 08:29:55;;;;;;;22.02;20.10;;;15.00;99.90;;;;;;4956988;28;20077;-88
2023/12/03 08:32:21;;;;;;;23.27;20.67;;;15.10;99.90;;;;;;4944930;28;20081;-89
2023/12/03 08:34:48;;;;;;;24.02;21.48;;;15.10;99.90;;;;;;4960727;28;20042;-90
2023/12/03 08:37:14;;;;;;;23.02;20.90;;;15.00;99.90;;;;;;4969417;28;20023;-86
2023/12/03 08:39:41;;;;;;;22.00;19.98;;;15.00;99.90;;;;;;4986306;28;20026;-84
2023/12/03 08:42:08;;;;;;;22.50;20.42;;;15.00;99.90;;;;;;4986946;28;20022;-85
2023/12/03 08:44:34;;;;;;;23.33;20.77;;;15.10;99.90;;;;;;4982116;28;20092;-87
2023/12/03 08:47:00;;;;;;;23.60;21.30;;;15.10;99.90;;;;;;4981093;28;20018;-86
2023/12/03 08:49:27;;;;;;;24.02;21.83;;;15.10;99.90;;;;;;4981057;28;20042;-87
2023/12/03 08:51:53;;;;;;;23.23;21.17;;;15.10;99.90;;;;;;4980633;28;20030;-86
2023/12/03 08:54:19;;;;;;;30.30;22.40;;;15.10;99.90;;;;;;4980656;28;20049;-87
2023/12/03 08:56:45;;;;;;;25.98;23.17;;;15.10;99.90;;;;;;4980985;28;20057;-87
2023/12/03 08:59:11;;;;;;;25.77;23.10;;;15.10;99.90;;;;;;4980493;28;20026;-88
2023/12/03 09:01:41;;;;;;;26.02;23.10;;;15.20;99.90;;;;;;4980168;28;20030;-88
2023/12/03 09:04:07;;;;;;;22.92;20.92;;;15.30;99.90;;;;;;4980173;28;20109;-90
2023/12/03 09:06:34;;;;;;;23.65;21.55;;;15.50;99.90;;;;;;4964481;28;20057;-88
2023/12/03 09:09:00;;;;;;;23.95;21.60;;;15.60;99.90;;;;;;4965037;28;20037;-89
2023/12/03 09:11:26;;;;;;;23.40;21.27;;;15.80;99.90;;;;;;4964529;28;20069;-88
2023/12/03 09:13:53;;;;;;;21.42;19.88;;;16.00;99.90;;;;;;4964141;28;20395;-87
2023/12/03 09:16:19;;;;;;;22.60;20.73;;;16.10;99.90;;;;;;4966268;28;20030;-87
2023/12/03 09:18:46;;;;;;;23.70;21.67;;;16.20;99.90;;;;;;4964544;28;20030;-89
2023/12/03 09:21:13;;;;;;;24.02;22.23;;;16.20;99.90;;;;;;4963671;28;20022;-84
2023/12/03 09:23:40;;;;;;;23.67;21.67;;;16.30;99.90;;;;;;4960128;28;20037;-84
2023/12/03 09:26:07;;;;;;;22.80;21.15;;;16.50;99.90;;;;;;4964025;28;20030;-86
2023/12/03 09:28:35;;;;;;;21.08;19.27;;;16.60;99.90;;;;;;4962828;28;20026;-83
2023/12/03 09:31:01;;;;;;;21.42;19.30;;;16.70;99.90;;;;;;4963504;28;20043;-83
2023/12/03 09:33:28;;;;;;;22.92;20.90;;;16.90;99.90;;;;;;4960003;28;20489;-86
2023/12/03 09:35:58;;;;;;;22.98;20.65;;;17.20;99.90;;;;;;4979376;28;20054;-87
2023/12/03 09:38:24;;;;;;;23.63;21.40;;;17.40;99.90;;;;;;4960437;28;20026;-86
2023/12/03 09:40:55;;;;;;;24.27;21.88;;;17.60;99.90;;;;;;4960428;28;20085;-86
2023/12/03 09:43:27;;;;;;;24.15;22.35;;;17.70;99.90;;;;;;4975957;28;20027;-88
2023/12/03 09:45:56;;;;;;;25.98;23.80;;;17.60;99.90;;;;;;4979624;28;20138;-85
2023/12/03 09:48:24;;;;;;;27.42;25.42;;;17.50;99.90;;;;;;4978642;28;20400;-84
2023/12/03 09:50:54;;;;;;;28.17;25.85;;;17.50;99.90;;;;;;4978806;28;20066;-84
2023/12/03 09:53:23;;;;;;;29.98;27.30;;;17.60;99.90;;;;;;4976192;28;20031;-87
2023/12/03 09:55:53;;;;;;;30.13;27.50;;;17.50;99.90;;;;;;4977022;28;20059;-88
2023/12/03 09:58:19;;;;;;;30.58;27.95;;;17.60;99.90;;;;;;4976711;28;20031;-85
2023/12/03 10:00:46;;;;;;;31.60;28.83;;;17.50;99.90;;;;;;4959533;28;20027;-87
2023/12/03 10:03:12;;;;;;;32.65;30.02;;;17.60;99.90;;;;;;4959517;28;20097;-85
2023/12/03 10:05:38;;;;;;;31.90;29.70;;;17.70;99.90;;;;;;4943806;28;20476;-86
2023/12/03 10:08:06;;;;;;;32.35;30.13;;;17.70;99.90;;;;;;4978609;28;20106;-85
2023/12/03 10:10:38;;;;;;;32.35;29.92;;;17.60;99.90;;;;;;4962600;28;20045;-85
2023/12/03 10:13:05;;;;;;;32.22;30.08;;;17.50;99.90;;;;;;4959657;28;20046;-88
2023/12/03 10:15:31;;;;;;;32.53;29.80;;;17.50;99.90;;;;;;4959724;28;20033;-86
2023/12/03 10:17:57;;;;;;;33.22;30.52;;;17.60;99.90;;;;;;4973329;28;20030;-86
2023/12/03 10:20:28;;;;;;;33.35;30.63;;;17.60;99.90;;;;;;4962708;28;20397;-85
2023/12/03 10:23:00;;;;;;;35.75;32.60;;;17.80;99.90;;;;;;4963055;28;20037;-86
2023/12/03 10:25:32;;;;;;;35.38;32.65;;;17.80;99.90;;;;;;4963292;28;20045;-86
2023/12/03 10:28:03;;;;;;;39.25;35.67;;;17.80;99.90;;;;;;4973508;28;20026;-87
2023/12/03 10:30:30;;;;;;;40.97;37.22;;;17.70;99.90;;;;;;4962985;28;20034;-88
2023/12/03 10:32:57;;;;;;;35.75;32.45;;;17.60;99.90;;;;;;4959981;28;20168;-87
2023/12/03 10:35:24;;;;;;;36.38;33.00;;;17.50;99.90;;;;;;4963224;28;20400;-89
2023/12/03 10:37:51;;;;;;;35.72;32.60;;;17.40;99.90;;;;;;4962905;28;20038;-88
2023/12/03 10:40:18;;;;;;;36.17;32.78;;;17.30;99.90;;;;;;4962952;28;20088;-88
2023/12/03 10:42:46;;;;;;;35.22;32.00;;;17.20;99.90;;;;;;4962729;28;20026;-88
2023/12/03 10:45:14;;;;;;;34.92;32.00;;;17.20;99.90;;;;;;4962807;28;20046;-88
2023/12/03 10:47:42;;;;;;;34.78;32.13;;;17.10;99.90;;;;;;4962748;28;20443;-88
2023/12/03 10:50:10;;;;;;;34.08;31.58;;;17.20;99.90;;;;;;4962142;28;20042;-87
2023/12/03 10:52:39;;;;;;;32.97;30.30;;;17.20;99.90;;;;;;4962801;28;20396;-91
2023/12/03 10:55:07;;;;;;;33.25;30.67;;;17.10;99.90;;;;;;4961875;28;20026;-87
2023/12/03 10:57:37;;;;;;;34.95;31.80;;;17.20;99.90;;;;;;4977909;28;20105;-86
2023/12/03 11:00:10;;;;;;;33.60;31.10;;;17.30;99.90;;;;;;4978292;28;20049;-88
2023/12/03 11:02:46;;;;;;;33.75;31.23;;;17.30;99.90;;;;;;4976531;28;20034;-86
2023/12/03 11:05:39;;;;;;;33.65;31.02;;;17.10;99.90;;;;;;4959209;28;20034;-87
2023/12/03 11:08:06;;;;;;;33.67;30.95;;;17.00;99.90;;;;;;4958438;28;20027;-86
2023/12/03 11:10:32;;;;;;;35.92;32.80;;;16.90;99.90;;;;;;4964291;28;20030;-91
2023/12/03 11:13:00;;;;;;;36.08;32.90;;;16.90;99.90;;;;;;4962162;28;20027;-87
2023/12/03 11:15:27;;;;;;;35.97;32.92;;;17.00;99.90;;;;;;4961766;28;20022;-85
2023/12/03 11:17:54;;;;;;;34.53;31.75;;;17.10;99.90;;;;;;4961880;28;20030;-85
2023/12/03 11:20:28;;;;;;;35.38;32.35;;;17.20;99.90;;;;;;4961850;28;20121;-86
2023/12/03 11:23:30;;;;;;;36.30;33.25;;;17.20;99.90;;;;;;4974451;28;20022;-86
2023/12/03 11:26:16;;;;;;;35.25;32.17;;;16.90;99.90;;;;;;4974566;28;20114;-85
2023/12/03 11:28:53;;;;;;;35.00;32.22;;;16.80;99.90;;;;;;4974307;28;20118;-85
2023/12/03 11:31:20;;;;;;;35.40;32.50;;;16.70;99.90;;;;;;4960787;28;20038;-84
2023/12/03 11:33:55;;;;;;;35.85;32.78;;;16.70;99.90;;;;;;4960960;28;20035;-84
2023/12/03 11:36:49;;;;;;;36.70;33.45;;;16.60;99.90;;;;;;4985152;28;20054;-85
2023/12/03 11:39:18;;;;;;;37.40;33.90;;;16.70;99.90;;;;;;4977234;28;20035;-85
2023/12/03 11:41:44;;;;;;;38.15;34.42;;;16.70;99.90;;;;;;4977078;28;20023;-86
2023/12/03 11:44:21;;;;;;;36.72;33.13;;;16.80;99.90;;;;;;4977435;28;20026;-84
2023/12/03 11:47:02;;;;;;;35.20;32.15;;;16.80;99.90;;;;;;4977338;28;20031;-84
2023/12/03 11:49:29;;;;;;;34.20;31.13;;;17.00;99.90;;;;;;4976949;28;20042;-85
2023/12/03 11:51:55;;;;;;;31.70;29.40;;;17.10;99.90;;;;;;4977163;28;20042;-89
2023/12/03 11:54:29;;;;;;;31.08;28.50;;;17.10;99.90;;;;;;4994374;28;20084;-89
2023/12/03 11:56:55;;;;;;;36.15;29.10;;;17.00;99.90;;;;;;4993836;28;20487;-90
2023/12/03 11:59:22;;;;;;;31.02;28.30;;;16.80;99.90;;;;;;4993706;28;20038;-91
2023/12/03 12:01:48;;;;;;;31.05;28.33;;;16.70;99.90;;;;;;4977743;28;20027;-88
2023/12/03 12:04:24;;;;;;;31.38;28.27;;;16.60;99.90;;;;;;4994029;28;20023;-88
2023/12/03 12:06:53;;;;;;;31.27;28.60;;;16.60;99.90;;;;;;4977835;28;20436;-88
2023/12/03 12:09:24;;;;;;;31.35;28.67;;;16.60;99.90;;;;;;4996584;28;20034;-92
2023/12/03 12:11:53;;;;;;;30.35;27.67;;;16.60;99.90;;;;;;4983887;28;20046;-91
2023/12/03 12:14:20;;;;;;;30.42;27.58;;;16.70;99.90;;;;;;4978107;28;20030;-89
2023/12/03 12:16:46;;;;;;;31.42;28.17;;;16.70;99.90;;;;;;4977732;28;20045;-87
2023/12/03 12:19:15;;;;;;;31.38;28.88;;;16.70;99.90;;;;;;4976269;28;20080;-82
2023/12/03 12:21:55;;;;;;;31.23;28.30;;;16.60;99.90;;;;;;4991901;28;20054;-81
2023/12/03 12:24:23;;;;;;;32.80;29.42;;;16.60;99.90;;;;;;4992611;28;20034;-82
2023/12/03 12:26:54;;;;;;;32.03;29.30;;;16.50;99.90;;;;;;4976293;28;20022;-84
2023/12/03 12:29:22;;;;;;;32.83;29.88;;;16.50;99.90;;;;;;4976234;28;20058;-82
2023/12/03 12:31:49;;;;;;;36.65;32.50;;;16.60;99.90;;;;;;4992962;28;20100;-83
2023/12/03 12:34:15;;;;;;;32.67;29.98;;;16.60;99.90;;;;;;4976466;28;20030;-82